CUD weather

Caloundra Airport
Queensland, Australia

Public forecast

Using degrees Celsius for public forecast. Weather courtesy of forecast.io.

METAR (pilot weather report)

Closest report is Brisbane International Airport, 35.1 nm (65.0 km) S. Retrieved 2019/04/20 13:30 UTC (22 minutes ago):

YBBN 201330Z 13006KT 9999 FEW020 23/19 Q1021 INTER 1400/1630 3000 SHRA BKN012

TAF (pilot weather forecast)

Closest forecast is Brisbane International Airport, 35.1 nm (65.0 km) S. Retrieved 2019/04/20 12:00 UTC (2 hours ago):

TAF YBBN 201113Z 2012/2118 17008KT 9999 -SHRA SCT015 BKN025 BKN040 FM210000 12014KT 9999 NSW SCT025 FM211000 17008KT 9999 -SHRA SCT025 SCT040 INTER 2012/2024 3000 SHRA BKN012 INTER 2114/2118 3000 SHRA BKN012